Time;durP1;ratioP1;P1;durP2;ratioP2;P2;SDS_P1;SDS_P2;PMS_P1;PMS_P2;Temp;Humidity;BMP_temperature;BMP_pressure;BME280_temperature;BME280_humidity;BME280_pressure;Samples;Min_cycle;Max_cycle;Signal;HPM_P1;HPM_P2
2022/07/12 00:02:12;;;;;;;3.40;1.50;;;;;;;;;;108628;1256;33683;-46
2022/07/12 00:04:45;;;;;;;3.90;1.70;;;;;;;;;;108641;1257;33394;-44
2022/07/12 00:07:18;;;;;;;3.80;1.50;;;;;;;;;;108619;1256;33388;-44
2022/07/12 00:09:50;;;;;;;4.00;1.40;;;;;;;;;;108615;1256;34139;-44
2022/07/12 00:12:22;;;;;;;3.20;1.20;;;;;;;;;;108648;1257;33703;-45
2022/07/12 00:14:54;;;;;;;3.30;1.50;;;;;;;;;;108615;1257;33937;-44
2022/07/12 00:17:27;;;;;;;3.50;1.40;;;;;;;;;;108623;1263;34152;-44
2022/07/12 00:19:59;;;;;;;3.80;1.10;;;;;;;;;;108693;1263;34161;-43
2022/07/12 00:22:31;;;;;;;3.00;1.20;;;;;;;;;;108608;1263;34014;-43
2022/07/12 00:25:04;;;;;;;3.00;1.30;;;;;;;;;;108637;1257;33757;-43
2022/07/12 00:27:35;;;;;;;;;;;;;;;;;;108713;1263;34122;-46
2022/07/12 00:30:10;;;;;;;3.00;1.00;;;;;;;;;;108668;1256;33150;-46
2022/07/12 00:32:42;;;;;;;2.60;1.10;;;;;;;;;;108681;1256;33910;-43
2022/07/12 00:35:15;;;;;;;4.40;1.20;;;;;;;;;;108681;1256;33717;-43
2022/07/12 00:37:47;;;;;;;2.40;1.00;;;;;;;;;;108676;1256;33584;-43
2022/07/12 00:40:20;;;;;;;3.50;1.30;;;;;;;;;;108611;1256;33265;-46
2022/07/12 00:42:52;;;;;;;3.70;1.10;;;;;;;;;;108610;1257;33983;-43
2022/07/12 00:45:24;;;;;;;3.20;1.20;;;;;;;;;;108649;1263;33632;-44
2022/07/12 00:47:57;;;;;;;2.80;1.10;;;;;;;;;;108638;1263;33799;-46
2022/07/12 00:50:29;;;;;;;3.60;1.00;;;;;;;;;;108602;1257;33696;-42
2022/07/12 00:53:02;;;;;;;3.10;1.20;;;;;;;;;;108639;1256;33452;-43
2022/07/12 00:55:34;;;;;;;3.10;1.20;;;;;;;;;;108665;1257;33593;-44
2022/07/12 00:58:06;;;;;;;2.70;1.00;;;;;;;;;;108644;1261;33581;-46
2022/07/12 01:00:38;;;;;;;3.30;1.40;;;;;;;;;;108654;1257;33738;-43
2022/07/12 01:03:10;;;;;;;2.50;0.90;;;;;;;;;;108623;1257;33404;-43
2022/07/12 01:05:44;;;;;;;2.30;1.00;;;;;;;;;;108600;1255;33546;-44
2022/07/12 01:08:17;;;;;;;2.50;0.90;;;;;;;;;;108645;1263;33568;-46
2022/07/12 01:10:52;;;;;;;2.50;1.00;;;;;;;;;;108648;1257;33319;-42
2022/07/12 01:13:24;;;;;;;2.90;1.00;;;;;;;;;;108646;1256;34106;-45
2022/07/12 01:15:57;;;;;;;2.70;1.00;;;;;;;;;;108645;1263;33657;-44
2022/07/12 01:18:29;;;;;;;3.10;1.10;;;;;;;;;;108658;1263;33873;-43
2022/07/12 01:21:04;;;;;;;2.50;1.00;;;;;;;;;;108617;1256;33540;-43
2022/07/12 01:23:37;;;;;;;1.90;0.90;;;;;;;;;;108618;1256;33626;-44
2022/07/12 01:26:09;;;;;;;2.00;0.90;;;;;;;;;;108633;1256;33415;-45
2022/07/12 01:28:42;;;;;;;2.40;1.00;;;;;;;;;;108656;1256;33234;-44
2022/07/12 01:31:14;;;;;;;2.80;1.10;;;;;;;;;;108620;1256;33529;-46
2022/07/12 01:33:46;;;;;;;2.70;1.00;;;;;;;;;;108624;1256;33990;-45
2022/07/12 01:36:19;;;;;;;3.20;1.20;;;;;;;;;;108649;1256;33478;-43
2022/07/12 01:38:51;;;;;;;3.60;1.30;;;;;;;;;;108684;1256;33922;-43
2022/07/12 01:41:25;;;;;;;2.60;1.10;;;;;;;;;;108634;1257;33688;-42
2022/07/12 01:43:57;;;;;;;3.00;1.20;;;;;;;;;;108650;1256;33605;-45
2022/07/12 01:46:30;;;;;;;2.50;1.00;;;;;;;;;;108624;1263;34203;-43
2022/07/12 01:49:02;;;;;;;6.00;1.50;;;;;;;;;;108695;1263;33381;-44
2022/07/12 01:51:35;;;;;;;2.30;0.90;;;;;;;;;;108649;1257;33637;-44
2022/07/12 01:54:06;;;;;;;;;;;;;;;;;;108627;1263;33388;-43
2022/07/12 01:56:38;;;;;;;4.10;1.20;;;;;;;;;;108662;1255;33593;-42
2022/07/12 01:59:11;;;;;;;2.60;1.00;;;;;;;;;;108618;1256;33525;-42
2022/07/12 02:01:43;;;;;;;3.00;1.00;;;;;;;;;;108636;1257;33102;-44
2022/07/12 02:04:18;;;;;;;3.00;1.00;;;;;;;;;;108653;1257;33938;-43
2022/07/12 02:06:50;;;;;;;3.20;1.20;;;;;;;;;;108648;1257;33826;-42
2022/07/12 02:09:23;;;;;;;2.10;1.00;;;;;;;;;;108635;1256;33136;-44
2022/07/12 02:11:57;;;;;;;2.90;1.10;;;;;;;;;;108646;1257;33067;-46
2022/07/12 02:14:30;;;;;;;3.20;1.30;;;;;;;;;;108652;1255;33478;-42
2022/07/12 02:17:02;;;;;;;2.70;0.90;;;;;;;;;;108672;1263;33560;-42
2022/07/12 02:19:35;;;;;;;2.30;0.90;;;;;;;;;;108618;1263;34024;-43
2022/07/12 02:22:08;;;;;;;3.10;1.00;;;;;;;;;;108634;1256;34053;-44
2022/07/12 02:24:40;;;;;;;3.90;1.10;;;;;;;;;;108679;1263;33908;-42
2022/07/12 02:27:13;;;;;;;2.90;1.10;;;;;;;;;;108672;1256;33475;-43
2022/07/12 02:29:46;;;;;;;2.30;1.00;;;;;;;;;;108674;1256;33942;-43
2022/07/12 02:32:18;;;;;;;3.00;1.20;;;;;;;;;;108628;1256;32981;-45
2022/07/12 02:34:50;;;;;;;4.00;1.40;;;;;;;;;;108643;1256;33927;-45
2022/07/12 02:37:22;;;;;;;2.90;1.20;;;;;;;;;;108678;1263;34014;-44
2022/07/12 02:40:53;;;;;;;2.40;1.00;;;;;;;;;;108591;1256;34317;-45
2022/07/12 02:42:50;;;;;;;4.10;1.10;;;;;;;;;;108642;1256;33909;-43
2022/07/12 02:45:24;;;;;;;2.60;1.10;;;;;;;;;;108660;1257;33923;-44
2022/07/12 02:47:56;;;;;;;2.30;1.00;;;;;;;;;;108596;1257;33849;-46
2022/07/12 02:50:29;;;;;;;3.20;1.20;;;;;;;;;;108649;1263;33481;-42
2022/07/12 02:53:01;;;;;;;2.30;1.00;;;;;;;;;;108661;1256;33087;-42
2022/07/12 02:55:33;;;;;;;3.10;1.30;;;;;;;;;;108628;1256;33476;-44
2022/07/12 02:58:06;;;;;;;3.00;0.90;;;;;;;;;;108678;1257;33073;-43
2022/07/12 03:00:44;;;;;;;3.40;1.30;;;;;;;;;;108664;1256;33522;-46
2022/07/12 03:03:17;;;;;;;3.30;1.20;;;;;;;;;;108669;1256;33597;-44
2022/07/12 03:05:49;;;;;;;3.80;1.30;;;;;;;;;;108643;1256;33428;-42
2022/07/12 03:08:22;;;;;;;3.40;1.30;;;;;;;;;;108651;1257;33568;-44
2022/07/12 03:10:55;;;;;;;2.60;1.00;;;;;;;;;;108663;1263;33392;-43
2022/07/12 03:13:27;;;;;;;3.30;1.30;;;;;;;;;;108634;1256;33150;-46
2022/07/12 03:15:59;;;;;;;2.60;1.10;;;;;;;;;;108649;1256;33551;-44
2022/07/12 03:18:32;;;;;;;3.30;1.20;;;;;;;;;;108645;1255;33410;-42
2022/07/12 03:21:04;;;;;;;2.00;1.00;;;;;;;;;;108678;1263;33951;-44
2022/07/12 03:23:37;;;;;;;3.10;1.10;;;;;;;;;;108634;1257;33599;-42
2022/07/12 03:26:10;;;;;;;2.80;1.20;;;;;;;;;;108643;1257;33719;-43
2022/07/12 03:28:41;;;;;;;;;;;;;;;;;;108640;1256;33577;-44
2022/07/12 03:31:13;;;;;;;3.70;1.20;;;;;;;;;;108649;1263;33726;-44
2022/07/12 03:33:45;;;;;;;2.40;1.00;;;;;;;;;;108658;1257;34172;-43
2022/07/12 03:36:17;;;;;;;3.10;1.30;;;;;;;;;;108648;1256;33645;-45
2022/07/12 03:38:50;;;;;;;3.10;1.20;;;;;;;;;;108594;1256;33672;-42
2022/07/12 03:41:22;;;;;;;4.10;1.40;;;;;;;;;;108641;1263;33603;-43
2022/07/12 03:43:54;;;;;;;2.70;1.20;;;;;;;;;;108651;1256;34121;-45
2022/07/12 03:46:27;;;;;;;2.50;1.10;;;;;;;;;;108649;1263;33859;-43
2022/07/12 03:49:00;;;;;;;4.40;1.30;;;;;;;;;;108675;1257;33616;-43
2022/07/12 03:51:32;;;;;;;3.00;1.30;;;;;;;;;;108660;1256;33519;-42
2022/07/12 03:54:05;;;;;;;2.80;1.10;;;;;;;;;;108613;1256;33583;-43
2022/07/12 03:59:27;;;;;;;3.20;1.30;;;;;;;;;;108641;1257;33566;-42
2022/07/12 04:02:01;;;;;;;3.00;1.30;;;;;;;;;;108707;1263;33928;-42
2022/07/12 04:04:34;;;;;;;2.60;1.20;;;;;;;;;;108660;1255;33310;-44
2022/07/12 04:07:07;;;;;;;3.50;1.20;;;;;;;;;;108669;1256;33545;-43
2022/07/12 04:09:38;;;;;;;;;;;;;;;;;;108704;1256;33027;-43
2022/07/12 04:12:12;;;;;;;2.50;1.00;;;;;;;;;;108610;1263;34010;-42
2022/07/12 04:14:44;;;;;;;2.90;1.30;;;;;;;;;;108646;1256;33579;-42
2022/07/12 04:17:17;;;;;;;3.00;1.20;;;;;;;;;;108643;1256;34031;-44
2022/07/12 04:19:49;;;;;;;2.80;1.30;;;;;;;;;;108657;1257;34151;-43
2022/07/12 04:22:21;;;;;;;2.20;1.10;;;;;;;;;;108689;1257;33681;-45
2022/07/12 04:24:53;;;;;;;2.90;1.30;;;;;;;;;;108662;1256;33240;-43
2022/07/12 04:27:27;;;;;;;3.10;1.30;;;;;;;;;;108655;1257;33679;-44
2022/07/12 04:29:59;;;;;;;3.30;1.30;;;;;;;;;;108659;1256;33632;-43
2022/07/12 04:32:31;;;;;;;2.90;1.50;;;;;;;;;;108632;1257;33397;-43
2022/07/12 04:35:04;;;;;;;3.20;1.20;;;;;;;;;;108653;1256;33213;-43
2022/07/12 04:37:36;;;;;;;3.10;1.20;;;;;;;;;;108668;1263;33133;-42
2022/07/12 04:40:12;;;;;;;2.70;1.20;;;;;;;;;;108662;1257;33134;-43
2022/07/12 04:42:44;;;;;;;3.20;1.20;;;;;;;;;;108622;1263;34003;-42
2022/07/12 04:45:16;;;;;;;3.30;1.30;;;;;;;;;;108659;1256;33775;-42
2022/07/12 04:47:48;;;;;;;3.20;1.30;;;;;;;;;;108624;1257;33682;-42
2022/07/12 04:50:20;;;;;;;3.40;1.10;;;;;;;;;;108682;1258;34083;-42
2022/07/12 04:52:52;;;;;;;2.70;1.20;;;;;;;;;;108673;1263;33478;-42
2022/07/12 04:55:25;;;;;;;2.60;1.20;;;;;;;;;;108659;1257;33548;-42
2022/07/12 04:57:57;;;;;;;3.30;1.20;;;;;;;;;;108642;1261;33657;-42
2022/07/12 05:00:29;;;;;;;3.10;1.20;;;;;;;;;;108625;1256;33115;-43
2022/07/12 05:03:02;;;;;;;3.50;1.30;;;;;;;;;;108632;1260;33191;-42
2022/07/12 05:05:34;;;;;;;4.00;1.30;;;;;;;;;;108674;1256;33124;-43
2022/07/12 05:08:08;;;;;;;3.80;1.40;;;;;;;;;;108642;1256;33229;-42
2022/07/12 05:10:40;;;;;;;2.60;1.20;;;;;;;;;;108687;1257;33616;-42
2022/07/12 05:13:12;;;;;;;4.70;1.50;;;;;;;;;;108681;1256;33721;-42
2022/07/12 05:15:44;;;;;;;2.50;1.20;;;;;;;;;;108623;1263;34051;-43
2022/07/12 05:18:17;;;;;;;3.70;1.30;;;;;;;;;;108660;1257;33692;-43
2022/07/12 05:20:49;;;;;;;2.80;1.30;;;;;;;;;;108632;1263;33873;-43
2022/07/12 05:23:22;;;;;;;3.90;1.30;;;;;;;;;;108633;1263;33331;-42
2022/07/12 05:25:54;;;;;;;3.30;1.80;;;;;;;;;;108647;1263;33282;-42
2022/07/12 05:28:26;;;;;;;3.80;1.40;;;;;;;;;;108623;1256;33717;-42
2022/07/12 05:30:58;;;;;;;3.10;1.30;;;;;;;;;;108640;1263;33594;-42
2022/07/12 05:33:30;;;;;;;2.70;1.30;;;;;;;;;;108642;1257;33659;-43
2022/07/12 05:36:02;;;;;;;3.50;1.30;;;;;;;;;;108642;1256;33823;-42
2022/07/12 05:38:34;;;;;;;4.00;1.50;;;;;;;;;;108632;1256;33490;-42
2022/07/12 05:41:07;;;;;;;3.90;1.60;;;;;;;;;;108663;1263;34046;-43
2022/07/12 05:43:39;;;;;;;4.20;1.50;;;;;;;;;;108664;1263;33217;-43
2022/07/12 05:46:11;;;;;;;2.40;1.20;;;;;;;;;;108609;1256;33689;-43
2022/07/12 05:48:43;;;;;;;2.30;1.30;;;;;;;;;;108685;1256;33704;-43
2022/07/12 05:54:05;;;;;;;3.70;1.50;;;;;;;;;;108604;1257;33469;-42
2022/07/12 05:56:37;;;;;;;2.80;1.40;;;;;;;;;;108672;1257;33211;-43
2022/07/12 05:59:10;;;;;;;3.00;1.30;;;;;;;;;;108610;1256;33576;-43
2022/07/12 06:01:42;;;;;;;4.20;1.50;;;;;;;;;;108622;1263;33641;-43
2022/07/12 06:04:14;;;;;;;2.30;1.20;;;;;;;;;;108636;1256;33590;-43
2022/07/12 06:06:47;;;;;;;3.20;1.10;;;;;;;;;;108626;1257;34262;-43
2022/07/12 06:09:19;;;;;;;5.10;1.50;;;;;;;;;;108632;1257;33753;-42
2022/07/12 06:11:54;;;;;;;3.00;1.40;;;;;;;;;;108663;1256;33654;-43
2022/07/12 06:14:26;;;;;;;3.30;1.30;;;;;;;;;;108652;1263;33548;-42
2022/07/12 06:16:59;;;;;;;4.00;1.50;;;;;;;;;;108633;1257;33741;-43
2022/07/12 06:19:32;;;;;;;6.40;1.50;;;;;;;;;;108667;1256;33733;-42
2022/07/12 06:22:04;;;;;;;3.40;1.20;;;;;;;;;;108620;1256;33763;-42
2022/07/12 06:24:36;;;;;;;2.90;1.70;;;;;;;;;;108696;1257;33702;-43
2022/07/12 06:27:09;;;;;;;3.80;1.30;;;;;;;;;;108634;1261;33675;-42
2022/07/12 06:29:41;;;;;;;;;;;;;;;;;;108643;1256;33746;-44
2022/07/12 06:32:15;;;;;;;3.70;1.30;;;;;;;;;;108651;1257;33767;-42
2022/07/12 06:34:47;;;;;;;3.50;1.50;;;;;;;;;;108363;1256;322231;-42
2022/07/12 06:37:19;;;;;;;5.00;2.20;;;;;;;;;;108646;1256;33730;-43
2022/07/12 06:39:51;;;;;;;4.60;2.20;;;;;;;;;;108642;1256;33944;-43
2022/07/12 06:42:23;;;;;;;6.20;2.50;;;;;;;;;;108696;1257;33850;-43
2022/07/12 06:44:55;;;;;;;6.90;2.70;;;;;;;;;;108544;1263;34613;-42
2022/07/12 06:47:27;;;;;;;6.60;2.70;;;;;;;;;;108640;1256;34341;-43
2022/07/12 06:49:59;;;;;;;5.60;2.40;;;;;;;;;;108624;1256;33516;-43
2022/07/12 06:52:32;;;;;;;5.20;2.20;;;;;;;;;;108651;1257;33827;-43
2022/07/12 06:55:06;;;;;;;6.80;2.30;;;;;;;;;;108634;1263;34111;-45
2022/07/12 06:57:38;;;;;;;6.60;2.70;;;;;;;;;;108652;1257;33660;-43
2022/07/12 07:00:12;;;;;;;7.60;2.60;;;;;;;;;;108623;1257;33272;-43
2022/07/12 07:02:44;;;;;;;7.40;2.80;;;;;;;;;;108660;1257;34024;-42
2022/07/12 07:05:17;;;;;;;6.20;2.50;;;;;;;;;;108655;1255;33615;-44
2022/07/12 07:07:48;;;;;;;;;;;;;;;;;;108648;1263;33217;-42
2022/07/12 07:10:23;;;;;;;4.60;1.80;;;;;;;;;;108658;1256;33750;-42
2022/07/12 07:12:55;;;;;;;5.80;2.30;;;;;;;;;;108614;1257;33727;-43
2022/07/12 07:15:27;;;;;;;4.10;2.20;;;;;;;;;;108628;1256;33765;-43
2022/07/12 07:18:00;;;;;;;6.40;2.10;;;;;;;;;;108643;1256;33687;-42
2022/07/12 07:20:33;;;;;;;4.00;1.80;;;;;;;;;;108676;1257;33948;-42
2022/07/12 07:23:06;;;;;;;5.20;2.00;;;;;;;;;;108648;1255;33755;-42
2022/07/12 07:25:38;;;;;;;4.50;2.10;;;;;;;;;;108653;1257;34683;-42
2022/07/12 07:28:10;;;;;;;5.10;1.60;;;;;;;;;;108642;1263;33765;-43
2022/07/12 07:30:54;;;;;;;4.80;1.70;;;;;;;;;;108596;1257;33201;-42
2022/07/12 07:33:27;;;;;;;3.40;1.50;;;;;;;;;;108651;1263;33578;-42
2022/07/12 07:35:58;;;;;;;;;;;;;;;;;;108674;1256;34314;-42
2022/07/12 07:38:31;;;;;;;3.80;1.50;;;;;;;;;;108649;1256;33398;-42
2022/07/12 07:41:03;;;;;;;4.60;1.40;;;;;;;;;;108565;1258;33768;-42
2022/07/12 07:43:34;;;;;;;3.20;1.20;;;;;;;;;;108612;1263;33459;-42
2022/07/12 07:46:07;;;;;;;4.70;1.50;;;;;;;;;;108659;1263;33860;-42
2022/07/12 07:48:40;;;;;;;5.20;1.60;;;;;;;;;;108644;1257;33984;-42
2022/07/12 07:51:12;;;;;;;4.30;1.20;;;;;;;;;;108560;1263;34102;-41
2022/07/12 07:53:44;;;;;;;6.20;1.70;;;;;;;;;;108596;1263;34278;-43
2022/07/12 07:56:17;;;;;;;4.50;1.40;;;;;;;;;;108583;1256;33628;-41
2022/07/12 07:58:51;;;;;;;3.70;1.20;;;;;;;;;;108630;1257;33653;-46
2022/07/12 08:01:42;;;;;;;6.80;2.20;;;;;;;;;;108586;1257;34285;-43
2022/07/12 08:04:16;;;;;;;8.30;2.00;;;;;;;;;;108586;1257;33753;-43
2022/07/12 08:06:50;;;;;;;7.10;2.00;;;;;;;;;;108614;1257;33647;-47
2022/07/12 08:09:22;;;;;;;11.00;2.70;;;;;;;;;;108618;1263;34121;-37
2022/07/12 08:11:55;;;;;;;6.70;2.60;;;;;;;;;;108566;1256;34602;-42
2022/07/12 08:14:27;;;;;;;6.20;1.80;;;;;;;;;;108629;1263;34142;-41
2022/07/12 08:16:59;;;;;;;6.70;1.70;;;;;;;;;;108595;1263;34045;-47
2022/07/12 08:19:31;;;;;;;6.30;1.90;;;;;;;;;;108612;1256;33710;-43
2022/07/12 08:22:06;;;;;;;9.20;2.50;;;;;;;;;;108639;1263;33236;-45
2022/07/12 08:24:38;;;;;;;7.70;1.60;;;;;;;;;;108625;1263;33785;-42
2022/07/12 08:27:10;;;;;;;3.80;1.50;;;;;;;;;;108674;1260;33680;-41
2022/07/12 08:29:43;;;;;;;5.90;2.20;;;;;;;;;;108574;1263;33634;-43
2022/07/12 08:32:15;;;;;;;5.30;2.10;;;;;;;;;;108627;1256;33828;-41
2022/07/12 08:34:48;;;;;;;3.90;1.90;;;;;;;;;;108543;1257;33752;-43
2022/07/12 08:37:20;;;;;;;4.10;1.70;;;;;;;;;;108574;1263;33243;-42
2022/07/12 08:39:52;;;;;;;4.10;1.80;;;;;;;;;;108591;1256;33595;-41
2022/07/12 08:42:25;;;;;;;4.90;1.70;;;;;;;;;;108532;1256;33489;-44
2022/07/12 08:45:00;;;;;;;4.00;1.70;;;;;;;;;;108609;1263;34312;-39
2022/07/12 08:47:32;;;;;;;3.40;1.60;;;;;;;;;;108601;1263;33603;-38
2022/07/12 08:50:19;;;;;;;4.40;1.50;;;;;;;;;;108554;1260;33282;-38
2022/07/12 08:52:55;;;;;;;3.50;1.50;;;;;;;;;;108630;1257;33319;-38
2022/07/12 08:55:30;;;;;;;3.90;1.60;;;;;;;;;;108601;1257;33529;-39
2022/07/12 08:58:06;;;;;;;3.80;1.40;;;;;;;;;;108629;1255;33936;-38
2022/07/12 09:00:41;;;;;;;5.10;1.50;;;;;;;;;;108652;1257;33994;-39
2022/07/12 09:03:14;;;;;;;4.00;1.10;;;;;;;;;;108665;1257;33243;-46
2022/07/12 09:05:53;;;;;;;3.30;1.20;;;;;;;;;;108627;1256;33760;-41
2022/07/12 09:08:34;;;;;;;3.10;1.60;;;;;;;;;;108557;1263;33645;-39
2022/07/12 09:11:08;;;;;;;2.80;1.20;;;;;;;;;;108641;1263;33684;-42
2022/07/12 09:13:54;;;;;;;2.70;1.10;;;;;;;;;;108654;1263;34157;-39
2022/07/12 09:16:28;;;;;;;3.20;1.00;;;;;;;;;;108546;1257;33322;-44
2022/07/12 09:19:19;;;;;;;2.80;1.20;;;;;;;;;;108643;1260;33663;-40
2022/07/12 09:21:54;;;;;;;3.00;1.20;;;;;;;;;;108670;1260;33753;-42
2022/07/12 09:24:30;;;;;;;3.60;1.10;;;;;;;;;;108597;1256;33207;-38
2022/07/12 09:27:05;;;;;;;2.10;1.00;;;;;;;;;;108619;1257;33987;-39
2022/07/12 09:29:48;;;;;;;2.40;1.20;;;;;;;;;;108548;1263;33831;-40
2022/07/12 09:38:15;;;;;;;4.00;1.10;;;;;;;;;;108243;1266;34298;-43
2022/07/12 09:40:48;;;;;;;2.70;1.10;;;;;;;;;;108525;1264;33331;-44
2022/07/12 09:43:24;;;;;;;2.60;1.20;;;;;;;;;;108620;1259;33274;-44
2022/07/12 09:45:56;;;;;;;4.20;1.30;;;;;;;;;;108622;1256;33215;-46
2022/07/12 09:48:30;;;;;;;2.60;1.10;;;;;;;;;;108585;1260;33792;-46
2022/07/12 09:51:05;;;;;;;2.50;1.20;;;;;;;;;;108602;1257;33639;-41
2022/07/12 09:53:46;;;;;;;2.80;1.30;;;;;;;;;;108663;1260;33669;-42
2022/07/12 09:56:21;;;;;;;3.30;1.60;;;;;;;;;;108568;1256;33691;-42
2022/07/12 09:58:57;;;;;;;3.80;1.70;;;;;;;;;;108585;1257;34270;-38
2022/07/12 10:01:31;;;;;;;3.60;1.30;;;;;;;;;;108657;1260;33580;-43
2022/07/12 10:04:06;;;;;;;3.40;1.50;;;;;;;;;;108644;1257;33771;-46
2022/07/12 10:06:40;;;;;;;4.70;1.30;;;;;;;;;;108632;1260;33964;-42
2022/07/12 10:09:11;;;;;;;;;;;;;;;;;;108605;1261;33691;-41
2022/07/12 10:11:44;;;;;;;2.30;1.10;;;;;;;;;;108648;1263;34096;-43
2022/07/12 10:14:16;;;;;;;3.50;1.20;;;;;;;;;;108590;1263;33290;-48
2022/07/12 10:16:53;;;;;;;2.70;1.20;;;;;;;;;;108490;1263;33820;-39
2022/07/12 10:19:32;;;;;;;2.30;1.20;;;;;;;;;;108405;1256;34093;-39
2022/07/12 10:22:06;;;;;;;4.00;1.50;;;;;;;;;;108445;1264;34181;-39
2022/07/12 10:24:55;;;;;;;3.30;1.30;;;;;;;;;;109117;1264;33693;-39
2022/07/12 10:27:37;;;;;;;4.70;1.60;;;;;;;;;;108406;1263;34000;-39
2022/07/12 10:30:25;;;;;;;3.70;1.40;;;;;;;;;;109030;1257;34479;-39
2022/07/12 10:33:00;;;;;;;3.20;1.30;;;;;;;;;;108885;1264;33438;-39
2022/07/12 10:35:31;;;;;;;;;;;;;;;;;;108573;1256;33770;-39
2022/07/12 10:38:23;;;;;;;2.50;1.20;;;;;;;;;;108597;1263;34003;-39
2022/07/12 10:40:58;;;;;;;2.90;1.20;;;;;;;;;;108609;1263;33906;-39
2022/07/12 10:46:28;;;;;;;2.70;1.00;;;;;;;;;;108588;1257;33291;-39
2022/07/12 10:49:27;;;;;;;2.90;1.20;;;;;;;;;;108643;1265;33313;-39
2022/07/12 10:52:25;;;;;;;2.90;1.10;;;;;;;;;;108654;1263;33250;-39
2022/07/12 10:55:24;;;;;;;2.60;1.10;;;;;;;;;;108592;1264;33464;-39
2022/07/12 10:57:56;;;;;;;2.80;1.40;;;;;;;;;;108165;1264;35559;-39
2022/07/12 11:00:28;;;;;;;2.10;0.80;;;;;;;;;;108599;1257;33874;-39
2022/07/12 11:03:05;;;;;;;2.00;1.00;;;;;;;;;;108595;1257;34129;-40
2022/07/12 11:05:38;;;;;;;3.20;1.20;;;;;;;;;;108586;1259;33717;-39
2022/07/12 11:08:16;;;;;;;2.20;1.10;;;;;;;;;;108590;1264;33304;-39
2022/07/12 11:10:59;;;;;;;3.00;1.20;;;;;;;;;;108607;1263;34112;-39
2022/07/12 11:13:31;;;;;;;1.60;0.90;;;;;;;;;;108554;1263;33921;-39
2022/07/12 11:16:05;;;;;;;2.80;1.10;;;;;;;;;;108606;1263;33622;-39
2022/07/12 11:18:38;;;;;;;4.50;1.30;;;;;;;;;;108628;1263;33684;-39
2022/07/12 11:21:13;;;;;;;1.90;1.00;;;;;;;;;;108595;1257;33226;-39
2022/07/12 11:23:46;;;;;;;2.40;1.00;;;;;;;;;;108609;1264;34282;-39
2022/07/12 11:26:18;;;;;;;1.70;1.00;;;;;;;;;;108581;1263;33743;-39
2022/07/12 11:28:55;;;;;;;3.60;1.00;;;;;;;;;;108626;1264;34113;-39
2022/07/12 11:31:28;;;;;;;2.30;1.00;;;;;;;;;;108597;1258;33283;-39
2022/07/12 11:34:01;;;;;;;2.70;1.10;;;;;;;;;;108582;1263;33793;-39
2022/07/12 11:36:33;;;;;;;3.00;1.00;;;;;;;;;;108598;1264;33914;-39
2022/07/12 11:39:05;;;;;;;2.00;0.90;;;;;;;;;;108582;1264;34150;-39
2022/07/12 11:41:38;;;;;;;2.70;1.10;;;;;;;;;;108596;1264;34361;-40
2022/07/12 11:44:10;;;;;;;2.50;1.00;;;;;;;;;;108643;1258;34416;-39
2022/07/12 11:46:42;;;;;;;2.90;1.00;;;;;;;;;;108630;1257;33677;-39
2022/07/12 11:49:18;;;;;;;1.30;0.80;;;;;;;;;;108578;1263;33716;-39
2022/07/12 11:51:50;;;;;;;2.50;1.10;;;;;;;;;;108607;1263;33750;-39
2022/07/12 11:54:27;;;;;;;3.20;1.00;;;;;;;;;;108604;1263;33296;-39
2022/07/12 11:57:11;;;;;;;2.00;0.80;;;;;;;;;;108606;1258;33882;-39
2022/07/12 11:59:44;;;;;;;2.10;0.90;;;;;;;;;;108630;1258;33888;-39
2022/07/12 12:02:18;;;;;;;3.20;1.10;;;;;;;;;;108600;1264;34562;-39
2022/07/12 12:04:51;;;;;;;1.50;0.80;;;;;;;;;;108604;1263;33276;-40
2022/07/12 12:07:25;;;;;;;2.40;1.00;;;;;;;;;;108568;1263;33313;-40
2022/07/12 12:10:03;;;;;;;;;;;;;;;;;;108673;1258;33897;-40
2022/07/12 12:12:45;;;;;;;3.00;1.30;;;;;;;;;;108597;1264;34254;-40
2022/07/12 12:15:19;;;;;;;1.90;0.80;;;;;;;;;;108612;1257;33776;-39
2022/07/12 12:17:58;;;;;;;1.60;0.70;;;;;;;;;;108574;1256;34112;-39
2022/07/12 12:20:32;;;;;;;1.50;0.80;;;;;;;;;;108605;1257;33724;-39
2022/07/12 12:23:05;;;;;;;1.60;0.80;;;;;;;;;;108609;1257;33924;-41
2022/07/12 12:25:38;;;;;;;1.80;0.80;;;;;;;;;;108529;1264;33288;-41
2022/07/12 12:28:10;;;;;;;3.00;1.10;;;;;;;;;;108622;1256;35282;-40
2022/07/12 12:30:54;;;;;;;2.70;1.00;;;;;;;;;;108613;1258;34015;-39
2022/07/12 12:33:40;;;;;;;3.50;1.00;;;;;;;;;;108580;1263;33204;-40
2022/07/12 12:36:24;;;;;;;3.10;1.00;;;;;;;;;;108595;1257;33274;-40
2022/07/12 12:38:58;;;;;;;3.00;1.20;;;;;;;;;;108621;1264;34299;-39
2022/07/12 12:41:42;;;;;;;3.40;1.80;;;;;;;;;;108617;1263;33654;-39
2022/07/12 12:44:16;;;;;;;2.50;1.00;;;;;;;;;;108620;1263;33878;-40
2022/07/12 12:46:55;;;;;;;2.40;1.00;;;;;;;;;;108628;1263;34011;-39
2022/07/12 12:49:48;;;;;;;2.50;1.30;;;;;;;;;;108610;1264;33804;-39
2022/07/12 12:52:21;;;;;;;1.90;0.80;;;;;;;;;;108625;1257;33641;-39
2022/07/12 12:54:53;;;;;;;3.10;1.40;;;;;;;;;;108558;1264;34487;-40
2022/07/12 12:57:26;;;;;;;2.70;1.10;;;;;;;;;;108577;1258;33673;-40
2022/07/12 13:00:02;;;;;;;2.60;1.00;;;;;;;;;;108625;1258;33525;-39
2022/07/12 13:02:34;;;;;;;3.30;1.00;;;;;;;;;;108593;1263;33623;-39
2022/07/12 13:05:08;;;;;;;3.40;1.20;;;;;;;;;;108618;1263;33249;-40
2022/07/12 13:07:40;;;;;;;7.50;5.70;;;;;;;;;;108625;1264;33326;-40
2022/07/12 13:10:12;;;;;;;9.80;5.10;;;;;;;;;;108606;1258;33687;-41
2022/07/12 13:12:45;;;;;;;6.70;4.70;;;;;;;;;;108575;1263;33626;-41
2022/07/12 13:15:17;;;;;;;6.00;4.30;;;;;;;;;;108556;1264;33937;-38
2022/07/12 13:17:49;;;;;;;5.80;4.00;;;;;;;;;;108570;1258;33826;-38
2022/07/12 13:20:21;;;;;;;6.30;4.10;;;;;;;;;;108648;1260;33718;-35
2022/07/12 13:22:53;;;;;;;5.20;3.90;;;;;;;;;;108627;1263;33766;-37
2022/07/12 13:25:26;;;;;;;4.60;3.40;;;;;;;;;;108614;1256;33815;-37
2022/07/12 13:27:57;;;;;;;4.30;2.60;;;;;;;;;;108648;1257;33948;-37
2022/07/12 13:30:29;;;;;;;4.50;3.00;;;;;;;;;;108637;1257;33390;-46
2022/07/12 13:33:02;;;;;;;4.50;2.00;;;;;;;;;;108552;1263;33704;-40
2022/07/12 13:35:35;;;;;;;4.90;2.20;;;;;;;;;;108633;1263;33749;-42
2022/07/12 13:38:07;;;;;;;4.00;1.80;;;;;;;;;;108597;1256;33803;-46
2022/07/12 13:40:39;;;;;;;3.50;1.40;;;;;;;;;;108605;1256;34364;-39
2022/07/12 13:43:11;;;;;;;5.40;1.60;;;;;;;;;;108623;1263;33236;-37
2022/07/12 13:45:44;;;;;;;3.60;1.50;;;;;;;;;;108653;1261;33621;-37
2022/07/12 13:48:15;;;;;;;4.60;1.10;;;;;;;;;;108649;1263;33932;-36
2022/07/12 13:50:48;;;;;;;2.60;1.10;;;;;;;;;;108650;1258;33284;-47
2022/07/12 13:53:20;;;;;;;3.80;1.50;;;;;;;;;;108543;1257;33449;-46
2022/07/12 13:55:52;;;;;;;2.60;1.10;;;;;;;;;;108481;1257;33692;-46
2022/07/12 13:58:24;;;;;;;3.50;1.20;;;;;;;;;;108449;1263;33250;-44
2022/07/12 14:00:56;;;;;;;2.20;1.00;;;;;;;;;;108445;1263;33773;-45
2022/07/12 14:03:28;;;;;;;3.00;1.10;;;;;;;;;;108439;1258;33614;-46
2022/07/12 14:06:00;;;;;;;3.10;1.10;;;;;;;;;;108459;1257;34481;-45
2022/07/12 14:08:32;;;;;;;3.60;1.30;;;;;;;;;;108533;1261;33840;-43
2022/07/12 14:11:04;;;;;;;3.60;1.10;;;;;;;;;;108637;1263;34566;-47
2022/07/12 14:13:36;;;;;;;3.60;1.10;;;;;;;;;;108574;1263;33866;-45
2022/07/12 14:16:10;;;;;;;3.20;1.00;;;;;;;;;;108654;1257;33369;-47
2022/07/12 14:18:42;;;;;;;4.00;1.10;;;;;;;;;;108684;1256;33834;-45
2022/07/12 14:21:14;;;;;;;3.80;1.20;;;;;;;;;;108605;1264;34209;-44
2022/07/12 14:23:46;;;;;;;2.90;1.20;;;;;;;;;;108591;1257;33705;-46
2022/07/12 14:26:18;;;;;;;3.50;1.20;;;;;;;;;;108608;1257;33201;-45
2022/07/12 14:28:50;;;;;;;5.80;1.40;;;;;;;;;;108640;1257;33590;-44
2022/07/12 14:31:22;;;;;;;2.30;1.20;;;;;;;;;;108639;1258;33781;-43
2022/07/12 14:33:54;;;;;;;4.30;1.40;;;;;;;;;;108372;1263;333622;-46
2022/07/12 14:36:26;;;;;;;4.20;1.10;;;;;;;;;;108623;1263;33666;-46
2022/07/12 14:38:58;;;;;;;4.40;1.20;;;;;;;;;;108633;1263;33900;-47
2022/07/12 14:41:30;;;;;;;4.00;1.30;;;;;;;;;;108619;1256;33679;-47
2022/07/12 14:44:01;;;;;;;4.80;1.40;;;;;;;;;;108652;1263;34228;-47
2022/07/12 14:46:33;;;;;;;2.90;1.10;;;;;;;;;;108640;1258;33962;-44
2022/07/12 14:49:05;;;;;;;4.00;1.10;;;;;;;;;;108645;1257;33630;-46
2022/07/12 14:51:37;;;;;;;4.70;1.10;;;;;;;;;;108638;1257;33792;-46
2022/07/12 14:54:09;;;;;;;3.60;1.20;;;;;;;;;;108637;1263;34065;-47
2022/07/12 14:56:41;;;;;;;3.90;1.10;;;;;;;;;;108638;1263;33391;-47
2022/07/12 14:59:13;;;;;;;2.40;1.00;;;;;;;;;;108624;1263;34637;-45
2022/07/12 15:01:45;;;;;;;2.40;1.00;;;;;;;;;;108638;1263;33882;-47
2022/07/12 15:04:17;;;;;;;2.30;1.00;;;;;;;;;;108645;1263;33837;-44
2022/07/12 15:06:50;;;;;;;3.00;0.80;;;;;;;;;;108620;1256;33699;-47
2022/07/12 15:09:22;;;;;;;3.10;1.10;;;;;;;;;;108652;1257;33855;-45
2022/07/12 15:11:54;;;;;;;1.70;0.80;;;;;;;;;;108630;1256;33849;-44
2022/07/12 15:14:26;;;;;;;2.40;1.10;;;;;;;;;;108624;1263;33304;-46
2022/07/12 15:16:58;;;;;;;2.80;0.90;;;;;;;;;;108492;1257;33753;-48
2022/07/12 15:19:30;;;;;;;2.50;1.10;;;;;;;;;;108527;1265;34022;-46
2022/07/12 15:22:02;;;;;;;3.70;1.30;;;;;;;;;;108515;1265;33268;-47
2022/07/12 15:24:34;;;;;;;2.50;1.10;;;;;;;;;;108562;1258;33365;-48
2022/07/12 15:27:08;;;;;;;4.10;1.20;;;;;;;;;;108534;1257;33644;-47